sensor_id;sensor_type;location;lat;lon;timestamp;P1;durP1;ratioP1;P2;durP2;ratioP2
20067;SDS011;10194;50.824;7.134;2022-08-19T00:01:36;25.77;;;17.27;;
20067;SDS011;10194;50.824;7.134;2022-08-19T00:04:07;22.27;;;16.30;;
20067;SDS011;10194;50.824;7.134;2022-08-19T00:06:36;23.88;;;16.90;;
20067;SDS011;10194;50.824;7.134;2022-08-19T00:09:06;24.60;;;17.30;;
20067;SDS011;10194;50.824;7.134;2022-08-19T00:11:35;23.48;;;17.25;;
20067;SDS011;10194;50.824;7.134;2022-08-19T00:14:02;24.27;;;17.55;;
20067;SDS011;10194;50.824;7.134;2022-08-19T00:16:31;26.58;;;18.08;;
20067;SDS011;10194;50.824;7.134;2022-08-19T00:18:57;23.55;;;17.58;;
20067;SDS011;10194;50.824;7.134;2022-08-19T00:21:24;23.83;;;18.25;;
20067;SDS011;10194;50.824;7.134;2022-08-19T00:23:51;24.17;;;17.75;;
20067;SDS011;10194;50.824;7.134;2022-08-19T00:26:19;27.10;;;19.17;;
20067;SDS011;10194;50.824;7.134;2022-08-19T00:28:45;27.23;;;18.60;;
20067;SDS011;10194;50.824;7.134;2022-08-19T00:31:12;28.40;;;19.48;;
20067;SDS011;10194;50.824;7.134;2022-08-19T00:33:38;26.42;;;18.52;;
20067;SDS011;10194;50.824;7.134;2022-08-19T00:36:04;29.77;;;20.73;;
20067;SDS011;10194;50.824;7.134;2022-08-19T00:38:34;26.90;;;20.42;;
20067;SDS011;10194;50.824;7.134;2022-08-19T00:41:02;27.75;;;20.25;;
20067;SDS011;10194;50.824;7.134;2022-08-19T00:43:29;29.45;;;21.15;;
20067;SDS011;10194;50.824;7.134;2022-08-19T00:45:56;31.05;;;20.52;;
20067;SDS011;10194;50.824;7.134;2022-08-19T00:48:22;28.05;;;20.42;;
20067;SDS011;10194;50.824;7.134;2022-08-19T00:50:48;30.75;;;21.75;;
20067;SDS011;10194;50.824;7.134;2022-08-19T00:53:19;28.33;;;20.33;;
20067;SDS011;10194;50.824;7.134;2022-08-19T00:55:49;28.42;;;20.88;;
20067;SDS011;10194;50.824;7.134;2022-08-19T00:58:19;29.25;;;21.08;;
20067;SDS011;10194;50.824;7.134;2022-08-19T01:00:48;29.52;;;21.23;;
20067;SDS011;10194;50.824;7.134;2022-08-19T01:03:15;29.00;;;21.00;;
20067;SDS011;10194;50.824;7.134;2022-08-19T01:05:44;30.17;;;21.23;;
20067;SDS011;10194;50.824;7.134;2022-08-19T01:08:12;32.92;;;22.27;;
20067;SDS011;10194;50.824;7.134;2022-08-19T01:10:43;30.85;;;21.02;;
20067;SDS011;10194;50.824;7.134;2022-08-19T01:13:17;31.85;;;21.73;;
20067;SDS011;10194;50.824;7.134;2022-08-19T01:15:50;28.65;;;20.92;;
20067;SDS011;10194;50.824;7.134;2022-08-19T01:18:21;32.40;;;21.40;;
20067;SDS011;10194;50.824;7.134;2022-08-19T01:20:49;31.45;;;20.75;;
20067;SDS011;10194;50.824;7.134;2022-08-19T01:23:17;27.35;;;20.23;;
20067;SDS011;10194;50.824;7.134;2022-08-19T01:30:50;29.80;;;20.75;;
20067;SDS011;10194;50.824;7.134;2022-08-19T01:33:17;30.58;;;19.85;;
20067;SDS011;10194;50.824;7.134;2022-08-19T01:35:44;27.38;;;19.20;;
20067;SDS011;10194;50.824;7.134;2022-08-19T01:38:19;29.42;;;20.05;;
20067;SDS011;10194;50.824;7.134;2022-08-19T01:40:49;28.15;;;20.30;;
20067;SDS011;10194;50.824;7.134;2022-08-19T01:43:15;32.53;;;20.50;;
20067;SDS011;10194;50.824;7.134;2022-08-19T01:45:43;30.65;;;20.38;;
20067;SDS011;10194;50.824;7.134;2022-08-19T01:48:09;30.17;;;20.75;;
20067;SDS011;10194;50.824;7.134;2022-08-19T01:50:35;30.02;;;21.23;;
20067;SDS011;10194;50.824;7.134;2022-08-19T01:53:03;30.65;;;20.80;;
20067;SDS011;10194;50.824;7.134;2022-08-19T01:55:38;30.98;;;21.02;;
20067;SDS011;10194;50.824;7.134;2022-08-19T01:58:17;32.40;;;21.63;;
20067;SDS011;10194;50.824;7.134;2022-08-19T02:00:46;32.08;;;20.20;;
20067;SDS011;10194;50.824;7.134;2022-08-19T02:03:13;29.88;;;20.73;;
20067;SDS011;10194;50.824;7.134;2022-08-19T02:05:39;29.67;;;21.13;;
20067;SDS011;10194;50.824;7.134;2022-08-19T02:08:06;28.30;;;20.85;;
20067;SDS011;10194;50.824;7.134;2022-08-19T02:10:32;28.75;;;21.08;;
20067;SDS011;10194;50.824;7.134;2022-08-19T02:12:58;34.90;;;22.05;;
20067;SDS011;10194;50.824;7.134;2022-08-19T02:15:24;32.70;;;21.60;;
20067;SDS011;10194;50.824;7.134;2022-08-19T02:17:50;35.00;;;21.30;;
20067;SDS011;10194;50.824;7.134;2022-08-19T02:20:16;31.17;;;22.08;;
20067;SDS011;10194;50.824;7.134;2022-08-19T02:22:42;32.53;;;21.85;;
20067;SDS011;10194;50.824;7.134;2022-08-19T02:25:12;29.65;;;21.55;;
20067;SDS011;10194;50.824;7.134;2022-08-19T02:27:39;31.27;;;21.85;;
20067;SDS011;10194;50.824;7.134;2022-08-19T02:30:07;30.63;;;21.23;;
20067;SDS011;10194;50.824;7.134;2022-08-19T02:32:36;31.35;;;22.80;;
20067;SDS011;10194;50.824;7.134;2022-08-19T02:35:02;31.85;;;21.65;;
20067;SDS011;10194;50.824;7.134;2022-08-19T02:37:29;30.08;;;20.55;;
20067;SDS011;10194;50.824;7.134;2022-08-19T02:40:13;31.85;;;22.25;;
20067;SDS011;10194;50.824;7.134;2022-08-19T02:42:39;29.40;;;20.60;;
20067;SDS011;10194;50.824;7.134;2022-08-19T02:45:06;32.05;;;22.55;;
20067;SDS011;10194;50.824;7.134;2022-08-19T02:47:35;32.08;;;21.13;;
20067;SDS011;10194;50.824;7.134;2022-08-19T02:50:01;30.40;;;21.05;;
20067;SDS011;10194;50.824;7.134;2022-08-19T02:52:29;30.95;;;21.92;;
20067;SDS011;10194;50.824;7.134;2022-08-19T02:54:54;31.55;;;21.48;;
20067;SDS011;10194;50.824;7.134;2022-08-19T02:57:22;31.45;;;21.17;;
20067;SDS011;10194;50.824;7.134;2022-08-19T02:59:48;33.15;;;21.67;;
20067;SDS011;10194;50.824;7.134;2022-08-19T03:02:15;31.60;;;21.67;;
20067;SDS011;10194;50.824;7.134;2022-08-19T03:04:41;31.08;;;22.38;;
20067;SDS011;10194;50.824;7.134;2022-08-19T03:07:07;31.88;;;22.70;;
20067;SDS011;10194;50.824;7.134;2022-08-19T03:09:36;34.92;;;22.73;;
20067;SDS011;10194;50.824;7.134;2022-08-19T03:12:03;33.47;;;23.30;;
20067;SDS011;10194;50.824;7.134;2022-08-19T03:14:30;31.70;;;22.27;;
20067;SDS011;10194;50.824;7.134;2022-08-19T03:16:57;30.70;;;21.83;;
20067;SDS011;10194;50.824;7.134;2022-08-19T03:19:23;33.78;;;23.42;;
20067;SDS011;10194;50.824;7.134;2022-08-19T03:21:49;32.50;;;23.17;;
20067;SDS011;10194;50.824;7.134;2022-08-19T03:24:17;31.42;;;22.42;;
20067;SDS011;10194;50.824;7.134;2022-08-19T03:26:45;33.58;;;23.33;;
20067;SDS011;10194;50.824;7.134;2022-08-19T03:29:23;32.95;;;23.25;;
20067;SDS011;10194;50.824;7.134;2022-08-19T03:31:52;35.33;;;23.35;;
20067;SDS011;10194;50.824;7.134;2022-08-19T03:34:22;38.50;;;25.13;;
20067;SDS011;10194;50.824;7.134;2022-08-19T03:36:53;34.90;;;24.20;;
20067;SDS011;10194;50.824;7.134;2022-08-19T03:39:21;35.55;;;24.10;;
20067;SDS011;10194;50.824;7.134;2022-08-19T03:41:49;38.55;;;24.38;;
20067;SDS011;10194;50.824;7.134;2022-08-19T03:44:18;35.03;;;23.90;;
20067;SDS011;10194;50.824;7.134;2022-08-19T03:46:48;34.83;;;24.35;;
20067;SDS011;10194;50.824;7.134;2022-08-19T03:49:20;36.40;;;24.65;;
20067;SDS011;10194;50.824;7.134;2022-08-19T03:51:48;38.10;;;25.45;;
20067;SDS011;10194;50.824;7.134;2022-08-19T03:54:16;35.53;;;24.52;;
20067;SDS011;10194;50.824;7.134;2022-08-19T03:56:45;35.65;;;23.90;;
20067;SDS011;10194;50.824;7.134;2022-08-19T03:59:30;35.25;;;24.10;;
20067;SDS011;10194;50.824;7.134;2022-08-19T04:01:59;36.08;;;24.50;;
20067;SDS011;10194;50.824;7.134;2022-08-19T04:04:26;37.03;;;24.48;;
20067;SDS011;10194;50.824;7.134;2022-08-19T04:06:53;33.50;;;23.70;;
20067;SDS011;10194;50.824;7.134;2022-08-19T04:09:20;34.53;;;24.20;;
20067;SDS011;10194;50.824;7.134;2022-08-19T04:11:48;34.03;;;23.33;;
20067;SDS011;10194;50.824;7.134;2022-08-19T04:14:19;38.53;;;24.58;;
20067;SDS011;10194;50.824;7.134;2022-08-19T04:16:49;37.78;;;23.50;;
20067;SDS011;10194;50.824;7.134;2022-08-19T04:19:16;36.10;;;24.52;;
20067;SDS011;10194;50.824;7.134;2022-08-19T04:21:44;33.28;;;22.50;;
20067;SDS011;10194;50.824;7.134;2022-08-19T04:24:13;33.97;;;23.13;;
20067;SDS011;10194;50.824;7.134;2022-08-19T04:26:40;36.10;;;24.25;;
20067;SDS011;10194;50.824;7.134;2022-08-19T04:29:07;35.60;;;22.88;;
20067;SDS011;10194;50.824;7.134;2022-08-19T04:31:39;35.17;;;23.08;;
20067;SDS011;10194;50.824;7.134;2022-08-19T04:34:07;32.50;;;22.52;;
20067;SDS011;10194;50.824;7.134;2022-08-19T04:36:36;32.78;;;22.00;;
20067;SDS011;10194;50.824;7.134;2022-08-19T04:39:09;33.53;;;22.85;;
20067;SDS011;10194;50.824;7.134;2022-08-19T04:41:39;32.53;;;22.13;;
20067;SDS011;10194;50.824;7.134;2022-08-19T04:44:23;32.33;;;22.48;;
20067;SDS011;10194;50.824;7.134;2022-08-19T04:46:49;40.00;;;23.00;;
20067;SDS011;10194;50.824;7.134;2022-08-19T04:49:17;34.03;;;22.20;;
20067;SDS011;10194;50.824;7.134;2022-08-19T04:51:47;32.03;;;22.08;;
20067;SDS011;10194;50.824;7.134;2022-08-19T04:54:14;29.85;;;21.17;;
20067;SDS011;10194;50.824;7.134;2022-08-19T04:56:42;30.42;;;20.73;;
20067;SDS011;10194;50.824;7.134;2022-08-19T04:59:08;31.70;;;22.23;;
20067;SDS011;10194;50.824;7.134;2022-08-19T05:01:36;32.25;;;22.75;;
20067;SDS011;10194;50.824;7.134;2022-08-19T05:04:03;34.25;;;22.50;;
20067;SDS011;10194;50.824;7.134;2022-08-19T05:06:31;30.60;;;21.02;;
20067;SDS011;10194;50.824;7.134;2022-08-19T05:09:00;33.85;;;21.75;;
20067;SDS011;10194;50.824;7.134;2022-08-19T05:11:29;28.90;;;20.65;;
20067;SDS011;10194;50.824;7.134;2022-08-19T05:14:03;29.65;;;21.30;;
20067;SDS011;10194;50.824;7.134;2022-08-19T05:16:29;31.48;;;21.15;;
20067;SDS011;10194;50.824;7.134;2022-08-19T05:18:55;30.70;;;20.70;;
20067;SDS011;10194;50.824;7.134;2022-08-19T05:21:40;28.95;;;21.45;;
20067;SDS011;10194;50.824;7.134;2022-08-19T05:24:43;29.70;;;21.40;;
20067;SDS011;10194;50.824;7.134;2022-08-19T05:27:09;31.40;;;21.33;;
20067;SDS011;10194;50.824;7.134;2022-08-19T05:29:35;30.38;;;22.35;;
20067;SDS011;10194;50.824;7.134;2022-08-19T05:32:01;31.25;;;21.88;;
20067;SDS011;10194;50.824;7.134;2022-08-19T05:34:33;30.33;;;20.83;;
20067;SDS011;10194;50.824;7.134;2022-08-19T05:37:01;29.98;;;21.17;;
20067;SDS011;10194;50.824;7.134;2022-08-19T05:39:30;31.75;;;21.67;;
20067;SDS011;10194;50.824;7.134;2022-08-19T05:42:00;30.58;;;20.90;;
20067;SDS011;10194;50.824;7.134;2022-08-19T05:44:32;31.27;;;21.45;;
20067;SDS011;10194;50.824;7.134;2022-08-19T05:47:02;31.77;;;21.52;;
20067;SDS011;10194;50.824;7.134;2022-08-19T05:49:31;29.05;;;19.67;;
20067;SDS011;10194;50.824;7.134;2022-08-19T05:51:58;29.67;;;20.90;;
20067;SDS011;10194;50.824;7.134;2022-08-19T05:54:27;29.95;;;21.00;;
20067;SDS011;10194;50.824;7.134;2022-08-19T05:56:53;30.75;;;20.88;;
20067;SDS011;10194;50.824;7.134;2022-08-19T05:59:19;30.98;;;22.67;;
20067;SDS011;10194;50.824;7.134;2022-08-19T06:01:46;32.00;;;20.48;;
20067;SDS011;10194;50.824;7.134;2022-08-19T06:04:19;30.48;;;21.35;;
20067;SDS011;10194;50.824;7.134;2022-08-19T06:06:46;29.75;;;20.67;;
20067;SDS011;10194;50.824;7.134;2022-08-19T06:09:17;33.10;;;21.25;;
20067;SDS011;10194;50.824;7.134;2022-08-19T06:11:49;30.75;;;20.52;;
20067;SDS011;10194;50.824;7.134;2022-08-19T06:14:26;30.77;;;20.73;;
20067;SDS011;10194;50.824;7.134;2022-08-19T06:16:55;32.70;;;21.20;;
20067;SDS011;10194;50.824;7.134;2022-08-19T06:19:22;33.20;;;23.00;;
20067;SDS011;10194;50.824;7.134;2022-08-19T06:21:54;33.35;;;22.88;;
20067;SDS011;10194;50.824;7.134;2022-08-19T06:24:21;33.35;;;22.17;;
20067;SDS011;10194;50.824;7.134;2022-08-19T06:26:49;29.83;;;20.85;;
20067;SDS011;10194;50.824;7.134;2022-08-19T06:29:18;29.60;;;21.02;;
20067;SDS011;10194;50.824;7.134;2022-08-19T06:31:47;29.08;;;21.30;;
20067;SDS011;10194;50.824;7.134;2022-08-19T06:34:16;32.90;;;23.20;;
20067;SDS011;10194;50.824;7.134;2022-08-19T06:36:45;34.58;;;23.52;;
20067;SDS011;10194;50.824;7.134;2022-08-19T06:39:21;39.03;;;24.95;;
20067;SDS011;10194;50.824;7.134;2022-08-19T06:41:51;39.00;;;26.35;;
20067;SDS011;10194;50.824;7.134;2022-08-19T06:44:21;38.78;;;27.63;;
20067;SDS011;10194;50.824;7.134;2022-08-19T06:46:50;39.60;;;26.60;;
20067;SDS011;10194;50.824;7.134;2022-08-19T06:49:16;41.10;;;28.08;;
20067;SDS011;10194;50.824;7.134;2022-08-19T06:51:46;38.42;;;26.33;;
20067;SDS011;10194;50.824;7.134;2022-08-19T06:54:14;43.40;;;28.15;;
20067;SDS011;10194;50.824;7.134;2022-08-19T06:56:43;39.13;;;26.63;;
20067;SDS011;10194;50.824;7.134;2022-08-19T06:59:11;40.60;;;27.95;;
20067;SDS011;10194;50.824;7.134;2022-08-19T07:01:44;43.30;;;27.88;;
20067;SDS011;10194;50.824;7.134;2022-08-19T07:04:17;36.13;;;26.58;;
20067;SDS011;10194;50.824;7.134;2022-08-19T07:06:47;44.47;;;28.77;;
20067;SDS011;10194;50.824;7.134;2022-08-19T07:09:15;43.33;;;28.63;;
20067;SDS011;10194;50.824;7.134;2022-08-19T07:11:50;40.83;;;27.08;;
20067;SDS011;10194;50.824;7.134;2022-08-19T07:14:19;46.75;;;28.33;;
20067;SDS011;10194;50.824;7.134;2022-08-19T07:16:48;41.47;;;27.67;;
20067;SDS011;10194;50.824;7.134;2022-08-19T07:19:17;39.53;;;25.60;;
20067;SDS011;10194;50.824;7.134;2022-08-19T07:21:45;39.33;;;25.48;;
20067;SDS011;10194;50.824;7.134;2022-08-19T07:24:12;42.20;;;26.23;;
20067;SDS011;10194;50.824;7.134;2022-08-19T07:26:40;37.95;;;23.95;;
20067;SDS011;10194;50.824;7.134;2022-08-19T07:29:08;42.05;;;25.00;;
20067;SDS011;10194;50.824;7.134;2022-08-19T07:31:35;40.40;;;25.40;;
20067;SDS011;10194;50.824;7.134;2022-08-19T07:34:06;44.38;;;25.25;;
20067;SDS011;10194;50.824;7.134;2022-08-19T07:36:34;41.10;;;25.85;;
20067;SDS011;10194;50.824;7.134;2022-08-19T07:39:04;38.55;;;23.63;;
20067;SDS011;10194;50.824;7.134;2022-08-19T07:41:34;38.55;;;24.50;;
20067;SDS011;10194;50.824;7.134;2022-08-19T07:44:02;43.78;;;24.70;;
20067;SDS011;10194;50.824;7.134;2022-08-19T07:46:30;41.00;;;24.27;;
20067;SDS011;10194;50.824;7.134;2022-08-19T07:48:59;40.05;;;24.90;;
20067;SDS011;10194;50.824;7.134;2022-08-19T07:51:25;32.90;;;22.05;;
20067;SDS011;10194;50.824;7.134;2022-08-19T07:53:52;36.47;;;23.17;;
20067;SDS011;10194;50.824;7.134;2022-08-19T07:56:19;40.05;;;24.55;;
20067;SDS011;10194;50.824;7.134;2022-08-19T07:58:47;38.35;;;24.23;;
20067;SDS011;10194;50.824;7.134;2022-08-19T08:01:19;39.50;;;25.05;;
20067;SDS011;10194;50.824;7.134;2022-08-19T08:03:50;36.15;;;22.88;;
20067;SDS011;10194;50.824;7.134;2022-08-19T08:06:36;41.28;;;24.95;;
20067;SDS011;10194;50.824;7.134;2022-08-19T08:09:25;35.50;;;22.25;;
20067;SDS011;10194;50.824;7.134;2022-08-19T08:12:00;38.00;;;23.80;;
20067;SDS011;10194;50.824;7.134;2022-08-19T08:14:33;33.78;;;22.45;;
20067;SDS011;10194;50.824;7.134;2022-08-19T08:17:11;33.60;;;21.38;;
20067;SDS011;10194;50.824;7.134;2022-08-19T08:19:39;41.58;;;23.05;;
20067;SDS011;10194;50.824;7.134;2022-08-19T08:22:06;35.95;;;21.92;;
20067;SDS011;10194;50.824;7.134;2022-08-19T08:24:53;30.20;;;19.92;;
20067;SDS011;10194;50.824;7.134;2022-08-19T08:27:19;31.30;;;19.05;;
20067;SDS011;10194;50.824;7.134;2022-08-19T08:29:45;25.75;;;17.42;;
20067;SDS011;10194;50.824;7.134;2022-08-19T08:32:11;28.67;;;18.75;;
20067;SDS011;10194;50.824;7.134;2022-08-19T08:34:37;28.70;;;18.45;;
20067;SDS011;10194;50.824;7.134;2022-08-19T08:37:03;25.33;;;17.33;;
20067;SDS011;10194;50.824;7.134;2022-08-19T08:39:28;23.40;;;16.63;;
20067;SDS011;10194;50.824;7.134;2022-08-19T08:42:08;22.13;;;15.50;;
20067;SDS011;10194;50.824;7.134;2022-08-19T08:47:32;28.02;;;17.55;;
20067;SDS011;10194;50.824;7.134;2022-08-19T08:52:34;31.25;;;16.70;;
20067;SDS011;10194;50.824;7.134;2022-08-19T08:55:08;21.77;;;15.15;;
20067;SDS011;10194;50.824;7.134;2022-08-19T08:57:42;29.65;;;18.98;;
20067;SDS011;10194;50.824;7.134;2022-08-19T09:00:17;25.52;;;17.85;;
20067;SDS011;10194;50.824;7.134;2022-08-19T09:02:50;28.15;;;16.88;;
20067;SDS011;10194;50.824;7.134;2022-08-19T09:05:16;25.08;;;16.08;;
20067;SDS011;10194;50.824;7.134;2022-08-19T09:07:55;26.85;;;15.32;;
20067;SDS011;10194;50.824;7.134;2022-08-19T09:10:56;24.55;;;15.40;;
20067;SDS011;10194;50.824;7.134;2022-08-19T09:18:46;30.73;;;19.70;;
20067;SDS011;10194;50.824;7.134;2022-08-19T09:21:19;38.22;;;18.95;;
20067;SDS011;10194;50.824;7.134;2022-08-19T09:23:50;28.50;;;18.08;;
20067;SDS011;10194;50.824;7.134;2022-08-19T09:26:17;28.98;;;18.75;;
20067;SDS011;10194;50.824;7.134;2022-08-19T09:28:52;29.33;;;19.13;;
20067;SDS011;10194;50.824;7.134;2022-08-19T09:31:21;31.65;;;19.75;;
20067;SDS011;10194;50.824;7.134;2022-08-19T09:33:50;34.05;;;20.80;;
20067;SDS011;10194;50.824;7.134;2022-08-19T09:36:26;36.08;;;23.05;;
20067;SDS011;10194;50.824;7.134;2022-08-19T09:39:03;35.45;;;20.98;;
20067;SDS011;10194;50.824;7.134;2022-08-19T09:41:30;34.47;;;21.42;;
20067;SDS011;10194;50.824;7.134;2022-08-19T09:43:57;30.88;;;20.42;;
20067;SDS011;10194;50.824;7.134;2022-08-19T09:46:25;35.00;;;21.23;;
20067;SDS011;10194;50.824;7.134;2022-08-19T09:48:53;35.70;;;20.05;;
20067;SDS011;10194;50.824;7.134;2022-08-19T09:51:21;35.00;;;22.38;;
20067;SDS011;10194;50.824;7.134;2022-08-19T09:53:50;37.15;;;22.80;;
20067;SDS011;10194;50.824;7.134;2022-08-19T09:56:19;35.42;;;22.70;;
20067;SDS011;10194;50.824;7.134;2022-08-19T09:58:47;32.60;;;19.90;;
20067;SDS011;10194;50.824;7.134;2022-08-19T10:01:20;25.88;;;13.45;;
20067;SDS011;10194;50.824;7.134;2022-08-19T10:03:49;24.70;;;15.98;;
20067;SDS011;10194;50.824;7.134;2022-08-19T10:06:21;30.30;;;19.65;;
20067;SDS011;10194;50.824;7.134;2022-08-19T10:08:49;35.75;;;21.92;;
20067;SDS011;10194;50.824;7.134;2022-08-19T10:11:17;34.13;;;21.85;;
20067;SDS011;10194;50.824;7.134;2022-08-19T10:13:45;39.03;;;23.60;;
20067;SDS011;10194;50.824;7.134;2022-08-19T10:16:13;37.97;;;22.50;;
20067;SDS011;10194;50.824;7.134;2022-08-19T10:18:44;33.03;;;21.45;;
20067;SDS011;10194;50.824;7.134;2022-08-19T10:21:15;37.15;;;23.55;;
20067;SDS011;10194;50.824;7.134;2022-08-19T10:23:47;33.72;;;22.02;;
20067;SDS011;10194;50.824;7.134;2022-08-19T10:26:18;36.92;;;24.23;;
20067;SDS011;10194;50.824;7.134;2022-08-19T10:28:48;39.15;;;25.13;;
20067;SDS011;10194;50.824;7.134;2022-08-19T10:31:15;40.30;;;23.23;;
20067;SDS011;10194;50.824;7.134;2022-08-19T10:33:48;30.05;;;21.02;;
20067;SDS011;10194;50.824;7.134;2022-08-19T10:36:19;30.38;;;19.85;;
20067;SDS011;10194;50.824;7.134;2022-08-19T10:38:49;31.00;;;21.30;;
20067;SDS011;10194;50.824;7.134;2022-08-19T10:41:20;29.77;;;20.40;;
20067;SDS011;10194;50.824;7.134;2022-08-19T10:43:50;29.23;;;19.38;;
20067;SDS011;10194;50.824;7.134;2022-08-19T10:46:19;37.55;;;21.65;;
20067;SDS011;10194;50.824;7.134;2022-08-19T10:48:48;27.33;;;19.55;;
20067;SDS011;10194;50.824;7.134;2022-08-19T10:51:15;31.65;;;19.92;;
20067;SDS011;10194;50.824;7.134;2022-08-19T10:54:00;27.35;;;18.30;;
20067;SDS011;10194;50.824;7.134;2022-08-19T10:56:27;23.98;;;16.38;;
20067;SDS011;10194;50.824;7.134;2022-08-19T10:59:13;22.88;;;17.20;;
20067;SDS011;10194;50.824;7.134;2022-08-19T11:01:41;23.80;;;15.88;;
20067;SDS011;10194;50.824;7.134;2022-08-19T11:04:08;21.70;;;15.20;;
20067;SDS011;10194;50.824;7.134;2022-08-19T11:06:38;21.90;;;15.85;;
20067;SDS011;10194;50.824;7.134;2022-08-19T11:09:06;23.30;;;16.75;;
20067;SDS011;10194;50.824;7.134;2022-08-19T11:11:33;26.17;;;18.50;;
20067;SDS011;10194;50.824;7.134;2022-08-19T11:14:05;21.42;;;15.75;;
20067;SDS011;10194;50.824;7.134;2022-08-19T11:16:37;22.42;;;15.75;;
20067;SDS011;10194;50.824;7.134;2022-08-19T11:19:05;26.05;;;16.48;;
20067;SDS011;10194;50.824;7.134;2022-08-19T11:21:34;20.48;;;15.23;;
20067;SDS011;10194;50.824;7.134;2022-08-19T11:24:08;18.15;;;13.88;;
20067;SDS011;10194;50.824;7.134;2022-08-19T11:26:38;20.45;;;15.32;;
20067;SDS011;10194;50.824;7.134;2022-08-19T11:29:06;18.85;;;13.90;;
20067;SDS011;10194;50.824;7.134;2022-08-19T11:31:38;25.35;;;16.17;;
20067;SDS011;10194;50.824;7.134;2022-08-19T11:34:11;24.05;;;16.67;;
20067;SDS011;10194;50.824;7.134;2022-08-19T11:36:45;18.33;;;13.40;;
20067;SDS011;10194;50.824;7.134;2022-08-19T11:39:21;18.10;;;12.55;;
20067;SDS011;10194;50.824;7.134;2022-08-19T11:41:47;19.48;;;13.25;;
20067;SDS011;10194;50.824;7.134;2022-08-19T11:44:13;16.95;;;12.50;;
20067;SDS011;10194;50.824;7.134;2022-08-19T11:46:40;18.25;;;12.57;;
20067;SDS011;10194;50.824;7.134;2022-08-19T11:49:11;15.85;;;13.35;;
20067;SDS011;10194;50.824;7.134;2022-08-19T11:51:43;16.48;;;11.95;;
20067;SDS011;10194;50.824;7.134;2022-08-19T11:54:10;17.40;;;12.40;;
20067;SDS011;10194;50.824;7.134;2022-08-19T11:56:39;16.33;;;11.23;;
20067;SDS011;10194;50.824;7.134;2022-08-19T11:59:05;16.65;;;11.73;;
20067;SDS011;10194;50.824;7.134;2022-08-19T12:01:35;19.92;;;13.25;;
20067;SDS011;10194;50.824;7.134;2022-08-19T12:04:02;19.23;;;12.93;;
20067;SDS011;10194;50.824;7.134;2022-08-19T12:06:30;17.73;;;13.25;;
20067;SDS011;10194;50.824;7.134;2022-08-19T12:09:00;19.63;;;13.20;;
20067;SDS011;10194;50.824;7.134;2022-08-19T12:11:32;15.43;;;11.63;;
20067;SDS011;10194;50.824;7.134;2022-08-19T12:13:58;15.52;;;11.40;;
20067;SDS011;10194;50.824;7.134;2022-08-19T12:16:25;16.98;;;13.00;;
20067;SDS011;10194;50.824;7.134;2022-08-19T12:18:53;15.48;;;12.30;;
20067;SDS011;10194;50.824;7.134;2022-08-19T12:21:22;15.00;;;12.00;;
20067;SDS011;10194;50.824;7.134;2022-08-19T12:23:54;13.95;;;11.43;;
20067;SDS011;10194;50.824;7.134;2022-08-19T12:26:22;12.52;;;11.13;;
20067;SDS011;10194;50.824;7.134;2022-08-19T12:28:50;12.48;;;11.02;;
20067;SDS011;10194;50.824;7.134;2022-08-19T12:31:16;13.30;;;10.52;;
20067;SDS011;10194;50.824;7.134;2022-08-19T12:33:44;12.45;;;10.43;;
20067;SDS011;10194;50.824;7.134;2022-08-19T12:36:11;13.57;;;10.93;;
20067;SDS011;10194;50.824;7.134;2022-08-19T12:38:40;11.68;;;10.15;;
20067;SDS011;10194;50.824;7.134;2022-08-19T12:41:09;14.60;;;10.60;;
20067;SDS011;10194;50.824;7.134;2022-08-19T12:43:39;15.77;;;11.43;;
20067;SDS011;10194;50.824;7.134;2022-08-19T12:46:06;13.88;;;12.32;;
20067;SDS011;10194;50.824;7.134;2022-08-19T12:48:32;16.52;;;12.27;;
20067;SDS011;10194;50.824;7.134;2022-08-19T12:50:59;12.82;;;11.02;;
20067;SDS011;10194;50.824;7.134;2022-08-19T12:53:26;15.40;;;12.60;;
20067;SDS011;10194;50.824;7.134;2022-08-19T12:55:57;15.05;;;11.48;;
20067;SDS011;10194;50.824;7.134;2022-08-19T12:58:24;18.23;;;11.38;;
20067;SDS011;10194;50.824;7.134;2022-08-19T13:00:51;14.48;;;10.75;;
20067;SDS011;10194;50.824;7.134;2022-08-19T13:03:17;14.93;;;10.18;;
20067;SDS011;10194;50.824;7.134;2022-08-19T13:05:43;13.93;;;9.70;;
20067;SDS011;10194;50.824;7.134;2022-08-19T13:08:09;11.13;;;9.93;;
20067;SDS011;10194;50.824;7.134;2022-08-19T13:10:36;16.63;;;11.35;;
20067;SDS011;10194;50.824;7.134;2022-08-19T13:13:06;15.85;;;10.30;;
20067;SDS011;10194;50.824;7.134;2022-08-19T13:15:35;14.00;;;10.18;;
20067;SDS011;10194;50.824;7.134;2022-08-19T13:18:05;10.52;;;8.60;;
20067;SDS011;10194;50.824;7.134;2022-08-19T13:20:34;10.50;;;8.23;;
20067;SDS011;10194;50.824;7.134;2022-08-19T13:23:01;10.88;;;8.15;;
20067;SDS011;10194;50.824;7.134;2022-08-19T13:25:28;12.00;;;8.20;;
20067;SDS011;10194;50.824;7.134;2022-08-19T13:27:55;11.52;;;7.72;;
20067;SDS011;10194;50.824;7.134;2022-08-19T13:30:21;8.88;;;7.22;;
20067;SDS011;10194;50.824;7.134;2022-08-19T13:33:06;9.93;;;7.80;;
20067;SDS011;10194;50.824;7.134;2022-08-19T13:38:25;8.25;;;6.57;;
20067;SDS011;10194;50.824;7.134;2022-08-19T13:40:53;11.13;;;7.03;;
20067;SDS011;10194;50.824;7.134;2022-08-19T13:43:21;11.93;;;8.93;;
20067;SDS011;10194;50.824;7.134;2022-08-19T13:45:51;13.88;;;9.63;;
20067;SDS011;10194;50.824;7.134;2022-08-19T13:48:20;11.02;;;8.38;;
20067;SDS011;10194;50.824;7.134;2022-08-19T13:50:46;11.18;;;8.95;;
20067;SDS011;10194;50.824;7.134;2022-08-19T13:53:13;12.43;;;9.85;;
20067;SDS011;10194;50.824;7.134;2022-08-19T13:55:40;13.30;;;9.82;;
20067;SDS011;10194;50.824;7.134;2022-08-19T13:58:07;12.48;;;9.57;;
20067;SDS011;10194;50.824;7.134;2022-08-19T14:00:36;15.95;;;9.95;;
20067;SDS011;10194;50.824;7.134;2022-08-19T14:03:07;14.65;;;9.25;;
20067;SDS011;10194;50.824;7.134;2022-08-19T14:05:34;12.02;;;8.68;;
20067;SDS011;10194;50.824;7.134;2022-08-19T14:08:00;10.95;;;7.68;;
20067;SDS011;10194;50.824;7.134;2022-08-19T14:10:27;8.82;;;7.28;;
20067;SDS011;10194;50.824;7.134;2022-08-19T14:12:56;12.30;;;7.53;;
20067;SDS011;10194;50.824;7.134;2022-08-19T14:15:25;9.52;;;7.18;;
20067;SDS011;10194;50.824;7.134;2022-08-19T14:17:52;11.85;;;7.45;;
20067;SDS011;10194;50.824;7.134;2022-08-19T14:20:18;10.48;;;7.85;;
20067;SDS011;10194;50.824;7.134;2022-08-19T14:22:45;9.10;;;7.70;;
20067;SDS011;10194;50.824;7.134;2022-08-19T14:25:14;12.05;;;7.95;;
20067;SDS011;10194;50.824;7.134;2022-08-19T14:27:44;10.55;;;7.90;;
20067;SDS011;10194;50.824;7.134;2022-08-19T14:30:11;13.23;;;6.95;;
20067;SDS011;10194;50.824;7.134;2022-08-19T14:32:42;10.05;;;7.35;;
20067;SDS011;10194;50.824;7.134;2022-08-19T14:35:08;11.13;;;7.65;;
20067;SDS011;10194;50.824;7.134;2022-08-19T14:37:34;13.18;;;7.68;;
20067;SDS011;10194;50.824;7.134;2022-08-19T14:40:01;13.52;;;8.50;;
20067;SDS011;10194;50.824;7.134;2022-08-19T14:42:28;11.57;;;8.27;;
20067;SDS011;10194;50.824;7.134;2022-08-19T14:44:57;14.50;;;7.90;;
20067;SDS011;10194;50.824;7.134;2022-08-19T14:47:24;13.00;;;8.40;;
20067;SDS011;10194;50.824;7.134;2022-08-19T14:49:52;12.23;;;7.97;;
20067;SDS011;10194;50.824;7.134;2022-08-19T14:52:19;13.55;;;7.93;;
20067;SDS011;10194;50.824;7.134;2022-08-19T14:54:45;8.70;;;6.93;;